Time;durP1;ratioP1;P1;durP2;ratioP2;P2;SDS_P1;SDS_P2;PMS_P1;PMS_P2;Temp;Humidity;BMP_temperature;BMP_pressure;BME280_temperature;BME280_humidity;BME280_pressure;Samples;Min_cycle;Max_cycle;Signal;HPM_P1;HPM_P2
2023/12/04 00:02:12;;;;;;;7.70;3.58;;;14.00;96.90;;;;;;1924883;74;21316;-46
2023/12/04 00:04:41;;;;;;;6.45;3.15;;;14.00;97.00;;;;;;1924842;74;21633;-46
2023/12/04 00:07:10;;;;;;;12.60;4.25;;;14.00;96.90;;;;;;1924837;74;21338;-46
2023/12/04 00:09:39;;;;;;;8.80;3.55;;;14.00;96.90;;;;;;1924831;74;21902;-47
2023/12/04 00:12:08;;;;;;;6.25;3.50;;;14.00;97.00;;;;;;1924831;74;21616;-46
2023/12/04 00:14:37;;;;;;;8.25;3.60;;;14.00;96.90;;;;;;1924833;74;21281;-46
2023/12/04 00:17:06;;;;;;;4.72;2.85;;;14.00;97.00;;;;;;1924876;74;21241;-46
2023/12/04 00:19:36;;;;;;;12.93;3.85;;;14.00;97.10;;;;;;1924825;74;21384;-46
2023/12/04 00:22:05;;;;;;;9.60;3.50;;;14.00;97.20;;;;;;1924812;74;21467;-46
2023/12/04 00:24:34;;;;;;;10.53;5.08;;;14.00;97.40;;;;;;1924793;74;21189;-43
2023/12/04 00:27:04;;;;;;;9.45;4.45;;;14.00;97.60;;;;;;1924892;74;21150;-44
2023/12/04 00:29:33;;;;;;;6.78;3.83;;;14.00;97.70;;;;;;1924818;74;21362;-46
2023/12/04 00:32:02;;;;;;;7.37;3.15;;;14.00;97.50;;;;;;1924852;74;21319;-46
2023/12/04 00:34:31;;;;;;;12.58;3.62;;;14.10;97.70;;;;;;1924805;74;21628;-46
2023/12/04 00:37:00;;;;;;;7.37;3.22;;;14.10;97.60;;;;;;1924792;74;21355;-46
2023/12/04 00:39:30;;;;;;;13.13;3.50;;;14.20;97.60;;;;;;1924834;74;21315;-45
2023/12/04 00:41:59;;;;;;;6.90;3.92;;;14.20;97.60;;;;;;1924830;74;21240;-46
2023/12/04 00:44:29;;;;;;;6.78;3.37;;;14.20;97.50;;;;;;1924663;74;21362;-46
2023/12/04 00:46:58;;;;;;;6.67;3.45;;;14.20;97.60;;;;;;1924752;74;21244;-46
2023/12/04 00:49:27;;;;;;;15.93;3.40;;;14.30;97.40;;;;;;1924701;74;21308;-46
2023/12/04 00:51:56;;;;;;;12.00;3.98;;;14.30;97.40;;;;;;1924660;74;21305;-45
2023/12/04 00:54:26;;;;;;;10.90;3.87;;;14.30;97.30;;;;;;1924820;74;21884;-46
2023/12/04 00:56:55;;;;;;;6.85;3.25;;;14.20;97.30;;;;;;1924741;74;21350;-46
2023/12/04 00:59:24;;;;;;;9.78;4.25;;;14.30;97.30;;;;;;1924719;74;21253;-47
2023/12/04 01:01:53;;;;;;;9.88;4.08;;;14.30;97.40;;;;;;1924728;74;21186;-46
2023/12/04 01:04:22;;;;;;;7.90;4.47;;;14.30;97.30;;;;;;1924799;74;21325;-46
2023/12/04 01:06:52;;;;;;;8.00;3.17;;;14.30;97.30;;;;;;1924858;74;21209;-46
2023/12/04 01:09:24;;;;;;;11.90;3.87;;;14.30;97.20;;;;;;1924670;74;21401;-46
2023/12/04 01:11:56;;;;;;;9.85;4.00;;;14.30;97.30;;;;;;1924790;74;21225;-43
2023/12/04 01:14:25;;;;;;;8.03;3.77;;;14.30;97.20;;;;;;1924674;74;21312;-43
2023/12/04 01:16:54;;;;;;;14.98;4.42;;;14.20;97.30;;;;;;1924697;74;21419;-46
2023/12/04 01:19:23;;;;;;;7.28;4.22;;;14.30;97.40;;;;;;1924671;74;21457;-45
2023/12/04 01:21:52;;;;;;;12.28;4.50;;;14.20;97.30;;;;;;1924721;74;21332;-46
2023/12/04 01:24:22;;;;;;;13.48;4.65;;;14.20;97.30;;;;;;1924685;74;21177;-46
2023/12/04 01:26:51;;;;;;;14.65;4.70;;;14.20;97.40;;;;;;1924794;74;21352;-47
2023/12/04 01:29:21;;;;;;;9.05;4.25;;;14.20;97.40;;;;;;1924820;74;21312;-46
2023/12/04 01:31:50;;;;;;;8.65;4.10;;;14.20;97.50;;;;;;1924692;74;21261;-46
2023/12/04 01:34:19;;;;;;;7.12;3.75;;;14.20;97.40;;;;;;1924813;74;21362;-45
2023/12/04 01:36:49;;;;;;;8.85;4.72;;;14.20;97.30;;;;;;1924804;74;21279;-45
2023/12/04 01:39:18;;;;;;;12.75;4.40;;;14.20;97.30;;;;;;1924680;74;21209;-46
2023/12/04 01:41:47;;;;;;;11.85;4.60;;;14.20;97.30;;;;;;1924694;74;21281;-46
2023/12/04 01:44:17;;;;;;;8.30;4.22;;;14.20;97.30;;;;;;1922041;74;22860;-46
2023/12/04 01:46:46;;;;;;;8.15;5.12;;;14.20;97.30;;;;;;1905329;75;21315;-45
2023/12/04 01:49:16;;;;;;;8.53;4.62;;;14.20;97.40;;;;;;1905218;75;21230;-46
2023/12/04 01:51:46;;;;;;;7.95;4.40;;;14.20;97.40;;;;;;1905347;75;21483;-46
2023/12/04 01:54:15;;;;;;;12.70;5.15;;;14.10;97.40;;;;;;1905261;74;21313;-46
2023/12/04 01:56:45;;;;;;;11.05;4.00;;;14.10;97.40;;;;;;1905355;74;21450;-45
2023/12/04 01:59:14;;;;;;;9.18;4.70;;;14.10;97.40;;;;;;1905454;75;21284;-46
2023/12/04 02:01:43;;;;;;;13.20;4.50;;;14.10;97.50;;;;;;1905301;75;21912;-47
2023/12/04 02:04:13;;;;;;;9.40;4.28;;;14.10;97.50;;;;;;1905291;75;21196;-46
2023/12/04 02:06:42;;;;;;;9.75;4.53;;;14.10;97.50;;;;;;1905367;74;21202;-45
2023/12/04 02:09:13;;;;;;;14.18;4.85;;;14.10;97.50;;;;;;1905284;75;21258;-45
2023/12/04 02:11:41;;;;;;;11.33;5.30;;;14.00;97.50;;;;;;1905426;75;21162;-45
2023/12/04 02:14:10;;;;;;;12.05;4.42;;;14.10;97.50;;;;;;1905395;75;21379;-46
2023/12/04 02:16:42;;;;;;;18.95;4.80;;;14.00;97.50;;;;;;1905360;75;21759;-45
2023/12/04 02:19:12;;;;;;;10.63;4.33;;;14.00;97.60;;;;;;1905369;75;21768;-46
2023/12/04 02:21:42;;;;;;;7.37;4.05;;;14.00;97.70;;;;;;1905404;75;21258;-45
2023/12/04 02:24:11;;;;;;;11.35;3.95;;;14.00;97.60;;;;;;1905435;75;21333;-45
2023/12/04 02:26:55;;;;;;;13.48;3.95;;;14.00;97.70;;;;;;1905507;74;21273;-45
2023/12/04 02:29:27;;;;;;;7.62;4.05;;;14.00;97.70;;;;;;1905396;75;21356;-45
2023/12/04 02:31:57;;;;;;;10.55;4.53;;;14.00;97.80;;;;;;1904961;74;21423;-45
2023/12/04 02:34:28;;;;;;;8.30;4.62;;;14.00;97.80;;;;;;1905500;75;21297;-45
2023/12/04 02:36:59;;;;;;;10.03;3.98;;;14.00;97.90;;;;;;1905532;74;21384;-46
2023/12/04 02:39:29;;;;;;;14.18;4.03;;;14.00;97.90;;;;;;1905587;75;21306;-45
2023/12/04 02:41:57;;;;;;;9.00;4.35;;;14.00;97.80;;;;;;1905309;75;21438;-45
2023/12/04 02:44:27;;;;;;;7.03;3.42;;;14.00;97.70;;;;;;1905408;75;21261;-45
2023/12/04 02:46:57;;;;;;;12.47;5.08;;;14.00;98.10;;;;;;1924529;74;21344;-45
2023/12/04 02:49:26;;;;;;;15.48;4.70;;;14.00;97.90;;;;;;1924726;74;21434;-45
2023/12/04 02:51:58;;;;;;;13.78;4.72;;;13.90;97.80;;;;;;1924755;74;21304;-45
2023/12/04 02:54:27;;;;;;;10.93;4.85;;;13.80;97.80;;;;;;1924826;74;21393;-45
2023/12/04 02:56:56;;;;;;;7.42;4.83;;;13.80;98.10;;;;;;1924732;74;21368;-45
2023/12/04 02:59:25;;;;;;;9.83;4.65;;;13.70;97.80;;;;;;1924769;74;21198;-45
2023/12/04 03:01:54;;;;;;;9.38;4.87;;;13.70;97.70;;;;;;1925046;74;21277;-45
2023/12/04 03:04:24;;;;;;;11.80;5.12;;;13.70;97.70;;;;;;1924879;74;21352;-47
2023/12/04 03:06:53;;;;;;;22.10;5.60;;;13.60;97.80;;;;;;1924776;74;21337;-45
2023/12/04 03:09:22;;;;;;;7.58;4.58;;;13.60;97.80;;;;;;1924719;74;21320;-44
2023/12/04 03:11:51;;;;;;;11.35;5.08;;;13.60;98.00;;;;;;1924779;74;21313;-45
2023/12/04 03:14:20;;;;;;;8.30;4.40;;;13.50;97.80;;;;;;1924753;74;21320;-45
2023/12/04 03:16:50;;;;;;;9.58;5.00;;;13.60;97.90;;;;;;1924770;74;21734;-44
2023/12/04 03:19:19;;;;;;;12.47;4.50;;;13.60;97.90;;;;;;1924693;74;21265;-45
2023/12/04 03:21:48;;;;;;;12.95;4.87;;;13.60;98.00;;;;;;1924709;74;21337;-45
2023/12/04 03:24:17;;;;;;;12.33;5.05;;;13.60;98.00;;;;;;1924699;74;21316;-44
2023/12/04 03:26:47;;;;;;;9.65;4.75;;;13.60;97.90;;;;;;1924736;74;21367;-45
2023/12/04 03:29:16;;;;;;;13.88;5.95;;;13.50;98.10;;;;;;1924735;74;21328;-47
2023/12/04 03:31:45;;;;;;;12.73;4.83;;;13.50;98.10;;;;;;1924758;74;21285;-49
2023/12/04 03:34:14;;;;;;;16.45;6.42;;;13.40;98.30;;;;;;1924738;74;21861;-48
2023/12/04 03:36:43;;;;;;;10.95;6.00;;;13.30;98.50;;;;;;1924732;74;21388;-49
2023/12/04 03:39:12;;;;;;;28.50;13.18;;;13.20;98.20;;;;;;1924752;74;21240;-46
2023/12/04 03:41:42;;;;;;;35.15;16.00;;;13.10;98.50;;;;;;1924768;74;21300;-46
2023/12/04 03:44:11;;;;;;;24.18;9.33;;;12.90;98.70;;;;;;1924693;74;21150;-47
2023/12/04 03:46:40;;;;;;;19.55;7.30;;;12.90;98.90;;;;;;1913121;74;21301;-45
2023/12/04 03:49:09;;;;;;;30.15;7.60;;;12.80;99.00;;;;;;1905208;75;21281;-46
2023/12/04 03:51:38;;;;;;;26.02;9.73;;;12.70;98.70;;;;;;1905245;75;21280;-46
2023/12/04 03:54:07;;;;;;;20.40;9.15;;;12.70;99.00;;;;;;1905172;75;21426;-46
2023/12/04 03:56:36;;;;;;;23.90;8.03;;;12.70;98.90;;;;;;1905344;75;21899;-46
2023/12/04 03:59:05;;;;;;;17.23;6.30;;;12.60;98.90;;;;;;1905225;75;21261;-46
2023/12/04 04:01:34;;;;;;;17.42;6.17;;;12.60;99.00;;;;;;1905325;75;21307;-45
2023/12/04 04:04:03;;;;;;;22.22;5.47;;;12.50;99.20;;;;;;1905202;75;21325;-46
2023/12/04 04:06:33;;;;;;;16.30;6.50;;;12.40;99.40;;;;;;1905405;75;21313;-45
2023/12/04 04:09:02;;;;;;;18.07;7.15;;;12.30;99.50;;;;;;1905261;75;21404;-46
2023/12/04 04:11:32;;;;;;;17.67;6.83;;;12.30;99.70;;;;;;1905430;75;21329;-46
2023/12/04 04:14:01;;;;;;;12.33;7.00;;;12.20;99.60;;;;;;1905258;75;21269;-46
2023/12/04 04:16:30;;;;;;;12.70;6.80;;;12.10;99.80;;;;;;1905417;75;21214;-47
2023/12/04 04:18:59;;;;;;;14.40;6.03;;;12.10;99.70;;;;;;1905293;75;21197;-46
2023/12/04 04:21:28;;;;;;;10.53;7.12;;;12.10;99.60;;;;;;1905359;75;21261;-46
2023/12/04 04:23:57;;;;;;;7.67;5.17;;;12.00;99.70;;;;;;1905260;74;21357;-45
2023/12/04 04:26:26;;;;;;;10.03;5.67;;;12.00;99.50;;;;;;1905282;75;21401;-46
2023/12/04 04:28:56;;;;;;;7.42;3.75;;;11.90;99.50;;;;;;1905414;75;21182;-45
2023/12/04 04:31:25;;;;;;;14.85;6.30;;;11.90;99.60;;;;;;1905287;75;21375;-47
2023/12/04 04:33:54;;;;;;;5.83;4.00;;;11.80;99.70;;;;;;1905263;75;21323;-46
2023/12/04 04:36:23;;;;;;;13.60;5.35;;;11.70;99.80;;;;;;1905382;75;21389;-45
2023/12/04 04:38:52;;;;;;;9.63;6.30;;;11.70;99.80;;;;;;1905327;75;21309;-45
2023/12/04 04:41:22;;;;;;;9.78;4.85;;;11.60;99.80;;;;;;1905418;75;21333;-45
2023/12/04 04:43:52;;;;;;;7.78;4.80;;;11.50;99.90;;;;;;1905268;75;21321;-46
2023/12/04 04:46:21;;;;;;;14.73;6.10;;;11.40;99.90;;;;;;1909013;74;21276;-46
2023/12/04 04:48:50;;;;;;;11.20;5.28;;;11.40;99.90;;;;;;1924708;74;21390;-45
2023/12/04 04:51:20;;;;;;;13.62;7.70;;;11.40;99.90;;;;;;1924764;74;21374;-45
2023/12/04 04:53:49;;;;;;;18.95;6.97;;;11.30;99.90;;;;;;1924660;74;21378;-45
2023/12/04 04:56:19;;;;;;;12.33;6.05;;;11.30;99.90;;;;;;1924626;74;21804;-45
2023/12/04 04:58:48;;;;;;;12.80;7.20;;;11.30;99.90;;;;;;1924702;74;21331;-45
2023/12/04 05:01:17;;;;;;;13.88;8.53;;;11.20;99.90;;;;;;1924825;74;21260;-46
2023/12/04 05:03:46;;;;;;;14.98;9.00;;;11.20;99.90;;;;;;1924640;74;21405;-46
2023/12/04 05:06:16;;;;;;;8.73;6.03;;;11.20;99.90;;;;;;1924821;74;21366;-45
2023/12/04 05:08:45;;;;;;;11.65;7.03;;;11.10;99.90;;;;;;1924793;74;21296;-45
2023/12/04 05:11:15;;;;;;;17.50;8.08;;;11.10;99.90;;;;;;1924629;74;21181;-45
2023/12/04 05:13:45;;;;;;;7.78;4.35;;;11.10;99.90;;;;;;1924663;74;21621;-45
2023/12/04 05:16:14;;;;;;;9.68;6.65;;;;;;;;;;1924672;74;21322;-45
2023/12/04 05:18:42;;;;;;;10.85;6.83;;;;;;;;;;1924551;74;21292;-45
2023/12/04 05:21:11;;;;;;;7.45;4.72;;;;;;;;;;1924581;74;21384;-46
2023/12/04 05:23:40;;;;;;;9.63;4.87;;;;;;;;;;1924757;74;21189;-45
2023/12/04 05:26:09;;;;;;;19.62;7.47;;;;;;;;;;1924600;74;21308;-46
2023/12/04 05:28:37;;;;;;;22.52;10.78;;;;;;;;;;1924600;74;21335;-45
2023/12/04 05:31:06;;;;;;;20.70;11.00;;;;;;;;;;1924696;74;21334;-45
2023/12/04 05:33:35;;;;;;;10.48;7.47;;;;;;;;;;1924567;74;21329;-45
2023/12/04 05:36:04;;;;;;;12.35;7.45;;;;;;;;;;1924611;74;21791;-45
2023/12/04 05:38:33;;;;;;;10.45;6.97;;;;;;;;;;1924581;74;21205;-46
2023/12/04 05:41:02;;;;;;;12.68;6.90;;;;;;;;;;1924638;74;21325;-45
2023/12/04 05:43:30;;;;;;;11.33;7.37;;;;;;;;;;1924697;74;21301;-45
2023/12/04 05:45:59;;;;;;;11.70;6.28;;;;;;;;;;1924769;74;21287;-45
2023/12/04 05:48:28;;;;;;;17.20;7.28;;;;;;;;;;1924923;74;21291;-45
2023/12/04 05:50:57;;;;;;;15.50;7.70;;;;;;;;;;1924784;74;21370;-45
2023/12/04 05:53:25;;;;;;;9.40;6.00;;;;;;;;;;1924708;74;21324;-45
2023/12/04 05:55:54;;;;;;;11.63;7.12;;;;;;;;;;1924766;74;21270;-45
2023/12/04 05:58:22;;;;;;;12.33;7.37;;;;;;;;;;1924728;74;21372;-45
2023/12/04 06:00:51;;;;;;;13.40;7.08;;;;;;;;;;1924891;74;21265;-45
2023/12/04 06:03:20;;;;;;;11.78;6.80;;;;;;;;;;1924705;74;21309;-45
2023/12/04 06:05:48;;;;;;;15.85;9.10;;;;;;;;;;1924665;74;21328;-45
2023/12/04 06:08:17;;;;;;;13.20;7.00;;;;;;;;;;1924632;74;21372;-45
2023/12/04 06:10:46;;;;;;;9.53;6.25;;;;;;;;;;1924623;74;21364;-46
2023/12/04 06:13:15;;;;;;;11.50;6.83;;;;;;;;;;1924648;74;21306;-46
2023/12/04 06:15:44;;;;;;;14.85;8.60;;;;;;;;;;1924678;74;21370;-45
2023/12/04 06:18:13;;;;;;;13.00;5.83;;;;;;;;;;1924720;74;21367;-46
2023/12/04 06:20:41;;;;;;;10.10;5.05;;;;;;;;;;1924608;74;21268;-45
2023/12/04 06:23:10;;;;;;;11.80;7.47;;;;;;;;;;1924604;74;21264;-45
2023/12/04 06:25:39;;;;;;;9.95;7.03;;;;;;;;;;1924632;74;21324;-45
2023/12/04 09:33:14;;;;;;;7.75;4.92;;;9.80;94.80;;;;;;1940157;72;22282;-68
2023/12/04 09:35:44;;;;;;;6.72;4.28;;;10.20;95.00;;;;;;1901585;74;21161;-65
2023/12/04 09:38:13;;;;;;;8.73;4.92;;;10.20;94.40;;;;;;1912218;75;21263;-64
2023/12/04 09:40:42;;;;;;;5.58;3.50;;;10.10;94.80;;;;;;1912893;75;21007;-74
2023/12/04 09:43:12;;;;;;;6.55;3.98;;;10.20;94.60;;;;;;1908276;73;21002;-70
2023/12/04 09:45:41;;;;;;;9.40;4.45;;;10.10;94.30;;;;;;1900556;75;21196;-68
2023/12/04 09:48:11;;;;;;;8.40;4.83;;;10.10;94.40;;;;;;1904522;75;21164;-74
2023/12/04 09:50:40;;;;;;;7.87;4.80;;;10.00;94.50;;;;;;1894861;75;21122;-71
2023/12/04 09:53:14;;;;;;;10.25;4.72;;;10.00;94.80;;;;;;1903771;75;21082;-70
2023/12/04 09:55:43;;;;;;;9.50;6.50;;;10.10;94.70;;;;;;1908260;75;21081;-71
2023/12/04 09:58:15;;;;;;;8.15;4.70;;;10.10;94.90;;;;;;1902225;75;21038;-71
2023/12/04 10:00:45;;;;;;;6.17;3.98;;;10.10;95.10;;;;;;1894206;75;21204;-69
2023/12/04 10:03:14;;;;;;;9.65;4.78;;;10.20;94.90;;;;;;1913871;75;21062;-66
2023/12/04 10:05:46;;;;;;;9.08;4.92;;;10.30;94.80;;;;;;1917646;75;20991;-67
2023/12/04 10:08:17;;;;;;;10.65;4.65;;;10.20;94.90;;;;;;1917555;75;21195;-67
2023/12/04 10:10:46;;;;;;;11.93;4.92;;;10.30;94.90;;;;;;1917570;75;21215;-67
2023/12/04 10:13:15;;;;;;;13.05;4.87;;;10.30;95.10;;;;;;1917646;75;21336;-67
2023/12/04 10:15:48;;;;;;;7.37;4.37;;;10.30;95.10;;;;;;1917534;75;21109;-70
2023/12/04 10:18:33;;;;;;;9.53;4.37;;;10.30;94.90;;;;;;1917670;75;21030;-69
2023/12/04 10:21:03;;;;;;;6.70;4.40;;;10.30;94.50;;;;;;1917156;73;21193;-72
2023/12/04 10:23:42;;;;;;;5.87;4.30;;;10.30;94.80;;;;;;1915944;75;21100;-71
2023/12/04 10:26:15;;;;;;;13.28;4.83;;;10.30;94.90;;;;;;1903136;75;21152;-71
2023/12/04 10:29:01;;;;;;;10.48;5.08;;;10.30;94.70;;;;;;1917653;75;21887;-72
2023/12/04 10:31:35;;;;;;;8.53;4.72;;;10.20;94.50;;;;;;1917586;74;21083;-66
2023/12/04 10:34:09;;;;;;;6.03;4.30;;;10.20;94.50;;;;;;1897370;74;21339;-69
2023/12/04 10:36:35;;;;;;;7.95;4.83;;;10.10;94.40;;;;;;1890170;75;21112;-69
2023/12/04 10:39:05;;;;;;;10.90;5.72;;;10.10;95.00;;;;;;1901182;74;21086;-67
2023/12/04 10:41:34;;;;;;;9.88;5.70;;;10.00;94.90;;;;;;1897252;74;21330;-66
2023/12/04 10:44:04;;;;;;;10.95;5.90;;;9.90;95.00;;;;;;1892730;74;21155;-67
2023/12/04 10:46:35;;;;;;;6.60;4.30;;;9.90;95.10;;;;;;1898539;74;21328;-68
2023/12/04 10:49:05;;;;;;;9.13;5.87;;;10.00;95.10;;;;;;1903153;74;21598;-68
2023/12/04 10:51:35;;;;;;;8.93;5.30;;;10.00;95.20;;;;;;1923891;74;21026;-67
2023/12/04 10:54:05;;;;;;;7.47;5.03;;;10.10;95.10;;;;;;1902823;74;21164;-71
2023/12/04 10:56:39;;;;;;;13.25;7.80;;;10.10;95.20;;;;;;1917055;74;21177;-75
2023/12/04 10:59:17;;;;;;;8.97;5.23;;;10.10;95.20;;;;;;1924412;74;21117;-76
2023/12/04 11:01:47;;;;;;;9.75;5.55;;;10.10;95.10;;;;;;1919001;74;21728;-67
2023/12/04 11:04:20;;;;;;;12.55;6.58;;;10.00;95.20;;;;;;1912936;74;21141;-67
2023/12/04 11:06:51;;;;;;;5.87;4.67;;;10.00;95.20;;;;;;1910614;74;21330;-70
2023/12/04 11:09:26;;;;;;;8.20;5.12;;;10.00;95.40;;;;;;1890953;75;21161;-72
2023/12/04 11:11:56;;;;;;;18.32;6.28;;;10.00;95.40;;;;;;1916221;74;21197;-69
2023/12/04 11:14:30;;;;;;;12.25;5.47;;;10.00;95.30;;;;;;1904557;74;21223;-70
2023/12/04 11:17:01;;;;;;;9.80;5.05;;;9.90;95.30;;;;;;1913037;74;21250;-69
2023/12/04 11:19:42;;;;;;;9.78;5.17;;;9.90;95.40;;;;;;1917216;74;21666;-72
2023/12/04 11:22:12;;;;;;;10.25;5.40;;;9.90;95.20;;;;;;1903597;74;21154;-75
2023/12/04 11:24:42;;;;;;;7.80;5.00;;;9.80;95.10;;;;;;1890759;74;21231;-74
2023/12/04 11:27:12;;;;;;;9.20;4.90;;;9.80;95.20;;;;;;1893790;74;21146;-67
2023/12/04 11:29:41;;;;;;;8.58;4.47;;;9.70;95.20;;;;;;1895205;74;21494;-75
2023/12/04 11:32:16;;;;;;;9.23;5.08;;;9.70;95.10;;;;;;1923568;74;21117;-73
2023/12/04 11:34:56;;;;;;;17.05;6.00;;;9.70;95.30;;;;;;1918938;74;21248;-69
2023/12/04 11:37:25;;;;;;;12.25;4.72;;;9.70;95.20;;;;;;1916854;74;21118;-70
2023/12/04 11:39:56;;;;;;;9.68;4.53;;;9.60;95.10;;;;;;1903204;74;21204;-71
2023/12/04 11:42:26;;;;;;;5.80;4.20;;;9.60;95.10;;;;;;1902297;74;21164;-69
2023/12/04 11:45:00;;;;;;;7.95;4.97;;;9.50;95.10;;;;;;1902355;74;21237;-71
2023/12/04 11:47:34;;;;;;;12.50;5.58;;;9.40;95.30;;;;;;1902695;74;21384;-71
2023/12/04 11:50:04;;;;;;;10.18;4.97;;;9.40;95.40;;;;;;1895900;74;21756;-64
2023/12/04 11:52:37;;;;;;;10.95;5.47;;;9.40;95.50;;;;;;1891104;75;21260;-58
2023/12/04 11:55:07;;;;;;;10.15;4.75;;;9.40;95.60;;;;;;1890079;75;21395;-58
2023/12/04 11:57:38;;;;;;;18.52;6.90;;;9.40;95.50;;;;;;1890541;74;21260;-58
2023/12/04 12:00:22;;;;;;;10.45;5.50;;;9.40;95.60;;;;;;1890450;76;21819;-58
2023/12/04 12:02:56;;;;;;;14.43;4.72;;;9.40;95.60;;;;;;1890285;75;21109;-58
2023/12/04 12:05:26;;;;;;;15.83;7.17;;;9.40;95.70;;;;;;1887069;75;21194;-57
2023/12/04 12:07:55;;;;;;;9.43;5.87;;;9.40;95.70;;;;;;1890170;76;21316;-58
2023/12/04 12:10:24;;;;;;;9.78;6.40;;;9.40;95.70;;;;;;1890974;75;21206;-58
2023/12/04 12:12:54;;;;;;;10.53;6.92;;;9.40;95.90;;;;;;1891426;74;21672;-57
2023/12/04 12:15:23;;;;;;;14.23;7.30;;;9.40;95.90;;;;;;1891503;75;21274;-58
2023/12/04 12:17:52;;;;;;;12.47;7.67;;;9.40;96.00;;;;;;1891599;75;21400;-58
2023/12/04 12:20:22;;;;;;;15.90;7.58;;;9.30;96.00;;;;;;1891483;75;21271;-58
2023/12/04 12:22:51;;;;;;;14.55;7.80;;;9.30;96.20;;;;;;1891352;75;21166;-57
2023/12/04 12:25:20;;;;;;;12.75;7.33;;;9.30;96.20;;;;;;1891358;76;21126;-58
2023/12/04 12:27:51;;;;;;;11.03;7.62;;;9.30;96.30;;;;;;1891434;76;21266;-57
2023/12/04 12:30:20;;;;;;;14.95;7.53;;;9.30;96.40;;;;;;1891371;75;21361;-58
2023/12/04 12:32:50;;;;;;;17.02;9.80;;;;;;;;;;1890301;74;21380;-57
2023/12/04 12:35:19;;;;;;;14.23;8.05;;;;;;;;;;1872734;76;21144;-59
2023/12/04 12:37:47;;;;;;;10.38;6.70;;;;;;;;;;1872736;75;21232;-57
2023/12/04 12:40:16;;;;;;;13.62;8.13;;;;;;;;;;1872747;76;21242;-58
2023/12/04 12:42:45;;;;;;;12.73;7.08;;;;;;;;;;1872654;75;21158;-58
2023/12/04 12:45:14;;;;;;;8.98;7.00;;;;;;;;;;1872814;77;21624;-58
2023/12/04 12:47:43;;;;;;;16.70;8.38;;;;;;;;;;1872725;77;21159;-59
2023/12/04 12:50:13;;;;;;;17.75;9.28;;;;;;;;;;1872545;76;21401;-58
2023/12/04 12:52:41;;;;;;;18.60;10.03;;;;;;;;;;1872583;75;21212;-59
2023/12/04 12:55:10;;;;;;;14.50;8.10;;;;;;;;;;1872690;76;21353;-59
2023/12/04 12:57:39;;;;;;;14.47;8.65;;;;;;;;;;1872686;75;21312;-59
2023/12/04 13:00:08;;;;;;;16.12;8.45;;;;;;;;;;1872679;77;21277;-59
2023/12/04 13:02:37;;;;;;;13.50;8.83;;;;;;;;;;1872670;77;21360;-59
2023/12/04 13:05:07;;;;;;;13.30;7.62;;;;;;;;;;1872680;77;21216;-59
2023/12/04 13:07:36;;;;;;;15.15;9.38;;;;;;;;;;1872613;75;21446;-58
2023/12/04 13:10:05;;;;;;;14.47;8.53;;;;;;;;;;1872703;76;21341;-59
2023/12/04 13:12:33;;;;;;;12.18;8.13;;;;;;;;;;1872784;75;21203;-58
2023/12/04 13:15:24;;;;;;;17.57;8.83;;;;;;;;;;1872767;76;21200;-58
2023/12/04 13:17:58;;;;;;;16.30;8.38;;;;;;;;;;1920304;72;21284;-70
2023/12/04 13:20:26;;;;;;;12.75;8.20;;;;;;;;;;1946517;73;21132;-70
2023/12/04 13:22:55;;;;;;;13.68;8.48;;;;;;;;;;1946421;74;21441;-70
2023/12/04 13:25:24;;;;;;;15.63;8.33;;;;;;;;;;1946451;74;21328;-70
2023/12/04 13:27:53;;;;;;;10.03;6.25;;;;;;;;;;1946446;74;21080;-70
2023/12/04 13:30:21;;;;;;;13.15;7.35;;;;;;;;;;1946474;73;21139;-71
2023/12/04 13:32:50;;;;;;;9.30;5.92;;;;;;;;;;1946515;72;21174;-70
2023/12/04 13:35:19;;;;;;;8.65;6.30;;;;;;;;;;1946374;74;21261;-70
2023/12/04 13:37:54;;;;;;;10.85;7.03;;;;;;;;;;1946515;74;21253;-71
2023/12/04 13:40:18;;;;;;;10.45;6.85;;;;;;;;;;1945380;73;21217;-70
2023/12/04 13:45:35;;;;;;;11.75;8.03;;;;;;;;;;1946392;74;21257;-70
2023/12/04 13:48:04;;;;;;;16.85;9.65;;;;;;;;;;1946391;73;21005;-70
2023/12/04 13:50:33;;;;;;;11.83;6.72;;;;;;;;;;1946400;74;21269;-70
2023/12/04 13:53:01;;;;;;;11.90;7.85;;;;;;;;;;1946376;74;21221;-71
2023/12/04 13:56:24;;;;;;;9.60;6.62;;;;;;;;;;1946266;73;21138;-71
2023/12/04 13:58:10;;;;;;;11.40;7.28;;;;;;;;;;1939762;73;21308;-70
2023/12/04 14:00:39;;;;;;;11.90;7.28;;;;;;;;;;1946330;73;21202;-71
2023/12/04 14:03:07;;;;;;;12.37;7.00;;;;;;;;;;1946295;74;21214;-70
2023/12/04 14:05:36;;;;;;;5.40;4.12;;;;;;;;;;1946302;73;21222;-70
2023/12/04 14:08:05;;;;;;;4.75;4.00;;;;;;;;;;1946317;74;21233;-70
2023/12/04 14:10:34;;;;;;;10.80;6.25;;;;;;;;;;1946278;73;21371;-70
2023/12/04 14:13:02;;;;;;;5.08;3.33;;;;;;;;;;1946358;74;21312;-70
2023/12/04 14:15:31;;;;;;;7.70;5.12;;;;;;;;;;1946251;74;21265;-70
2023/12/04 14:18:00;;;;;;;9.35;5.53;;;;;;;;;;1946354;73;21316;-70
2023/12/04 14:20:28;;;;;;;8.73;5.30;;;;;;;;;;1946487;74;21221;-70
2023/12/04 14:22:57;;;;;;;9.13;5.22;;;;;;;;;;1946445;74;21159;-70
2023/12/04 14:25:26;;;;;;;5.12;3.65;;;;;;;;;;1946412;73;21473;-70
2023/12/04 14:27:55;;;;;;;3.80;3.02;;;;;;;;;;1946423;74;21320;-70
2023/12/04 14:30:24;;;;;;;4.12;3.02;;;;;;;;;;1946426;74;21265;-70
2023/12/04 14:32:52;;;;;;;5.20;3.12;;;;;;;;;;1946465;74;21119;-70
2023/12/04 14:35:21;;;;;;;6.20;3.35;;;;;;;;;;1946408;72;21386;-70
2023/12/04 14:37:54;;;;;;;5.62;4.45;;;;;;;;;;1946393;74;21198;-70
2023/12/04 14:40:20;;;;;;;2.98;2.40;;;;;;;;;;1945859;73;21277;-70
2023/12/04 14:42:48;;;;;;;7.75;4.20;;;;;;;;;;1946283;74;21476;-70
2023/12/04 14:45:17;;;;;;;6.60;3.65;;;;;;;;;;1946340;73;21275;-69
2023/12/04 14:47:48;;;;;;;4.53;3.22;;;;;;;;;;1946312;73;21312;-70
2023/12/04 14:50:16;;;;;;;7.15;5.12;;;;;;;;;;1946372;74;21777;-70
2023/12/04 14:52:49;;;;;;;5.78;4.10;;;;;;;;;;1946365;74;21201;-70
2023/12/04 15:16:47;;;;;;;6.85;3.75;;;;;;;;;;1946402;74;21778;-70
2023/12/04 15:21:41;;;;;;;4.95;3.50;;;;;;;;;;1933938;74;21246;-70
2023/12/04 15:24:10;;;;;;;6.65;4.05;;;;;;;;;;1934679;74;21275;-70
2023/12/04 15:26:39;;;;;;;3.67;2.45;;;;;;;;;;1926922;74;21367;-70
2023/12/04 15:29:10;;;;;;;4.58;2.50;;;;;;;;;;1926881;74;21404;-70
2023/12/04 15:31:39;;;;;;;10.88;4.47;;;;;;;;;;1926969;74;21310;-70
2023/12/04 15:34:08;;;;;;;4.35;2.70;;;;;;;;;;1926919;74;21252;-70
2023/12/04 15:36:37;;;;;;;7.50;4.97;;;;;;;;;;1926874;74;21373;-70
2023/12/04 15:39:08;;;;;;;8.53;4.40;;;;;;;;;;1926881;74;21274;-70
2023/12/04 15:41:38;;;;;;;4.05;2.85;;;;;;;;;;1861816;72;21353;-70
2023/12/04 15:44:08;;;;;;;8.80;5.30;;;;;;;;;;1826920;78;21406;-70
2023/12/04 15:46:37;;;;;;;6.37;3.40;;;;;;;;;;1827021;78;21159;-69
2023/12/04 15:49:05;;;;;;;5.40;3.80;;;;;;;;;;1827051;78;21216;-70
2023/12/04 15:51:34;;;;;;;9.18;6.33;;;;;;;;;;1826967;78;21320;-69
2023/12/04 15:54:03;;;;;;;9.68;5.78;;;;;;;;;;1827040;78;21480;-70
2023/12/04 15:56:31;;;;;;;13.32;8.23;;;;;;;;;;1826941;78;21276;-69
2023/12/04 15:59:00;;;;;;;8.33;5.72;;;;;;;;;;1827067;78;21357;-70
2023/12/04 16:01:29;;;;;;;11.15;7.28;;;;;;;;;;1826966;78;21411;-69
2023/12/04 16:03:58;;;;;;;12.93;6.72;;;;;;;;;;1826930;78;21296;-69
2023/12/04 16:06:27;;;;;;;12.23;7.92;;;;;;;;;;1826888;78;21417;-69
2023/12/04 16:08:57;;;;;;;10.43;7.97;;;;;;;;;;1826974;78;21455;-70
2023/12/04 16:11:26;;;;;;;13.35;8.30;;;;;;;;;;1827059;78;21285;-70
2023/12/04 16:13:55;;;;;;;11.12;6.65;;;;;;;;;;1826917;78;21333;-70
2023/12/04 16:16:24;;;;;;;9.65;5.17;;;;;;;;;;1826977;78;21324;-70
2023/12/04 16:18:53;;;;;;;12.70;6.92;;;;;;;;;;1826853;78;21232;-69
2023/12/04 16:21:22;;;;;;;11.78;6.00;;;;;;;;;;1826766;78;21289;-69
2023/12/04 16:23:57;;;;;;;7.53;5.53;;;;;;;;;;1826779;78;21459;-69
2023/12/04 16:26:24;;;;;;;11.30;5.75;;;;;;;;;;1826661;78;21932;-69
2023/12/04 16:28:53;;;;;;;15.90;8.40;;;;;;;;;;1826761;78;21326;-69
2023/12/04 16:31:22;;;;;;;12.78;7.45;;;;;;;;;;1826803;78;21353;-69
2023/12/04 16:33:51;;;;;;;17.48;7.75;;;;;;;;;;1826815;78;21286;-69
2023/12/04 16:36:19;;;;;;;14.73;6.00;;;;;;;;;;1826843;78;21279;-69
2023/12/04 16:38:48;;;;;;;14.68;7.95;;;;;;;;;;1826845;78;21278;-69
2023/12/04 16:41:17;;;;;;;14.65;8.18;;;;;;;;;;1838210;76;21180;-69
2023/12/04 16:43:46;;;;;;;12.10;7.85;;;;;;;;;;1869743;77;21201;-69
2023/12/04 16:46:15;;;;;;;12.58;8.95;;;;;;;;;;1869731;77;21297;-69
2023/12/04 16:48:44;;;;;;;13.93;9.00;;;;;;;;;;1869841;76;21310;-69
2023/12/04 16:51:13;;;;;;;13.00;7.95;;;;;;;;;;1869945;77;21277;-69
2023/12/04 16:53:42;;;;;;;13.28;8.78;;;;;;;;;;1869859;77;21258;-69
2023/12/04 16:56:14;;;;;;;13.48;7.97;;;;;;;;;;1869900;77;21160;-70
2023/12/04 16:58:42;;;;;;;13.83;8.73;;;;;;;;;;1869839;77;21419;-70
2023/12/04 17:01:11;;;;;;;14.03;7.95;;;;;;;;;;1869774;77;21201;-70
2023/12/04 17:03:40;;;;;;;15.28;9.23;;;;;;;;;;1869760;77;21305;-70
2023/12/04 17:06:09;;;;;;;14.47;9.98;;;;;;;;;;1869842;77;21228;-70
2023/12/04 17:08:38;;;;;;;16.25;8.35;;;;;;;;;;1869839;76;21209;-70
2023/12/04 17:11:07;;;;;;;14.38;9.25;;;;;;;;;;1869912;77;21340;-70